sensor_id;sensor_type;location;lat;lon;timestamp;temperature;humidity
30304;DHT22;17112;48.636;10.152;2024-03-23T00:55:53;9.50;59.80
30304;DHT22;17112;48.636;10.152;2024-03-23T00:58:18;9.40;60.10
30304;DHT22;17112;48.636;10.152;2024-03-23T01:00:44;9.40;60.50
30304;DHT22;17112;48.636;10.152;2024-03-23T01:03:09;9.30;60.50
30304;DHT22;17112;48.636;10.152;2024-03-23T01:05:35;9.30;60.60
30304;DHT22;17112;48.636;10.152;2024-03-23T01:08:01;9.30;60.70
30304;DHT22;17112;48.636;10.152;2024-03-23T01:10:27;9.30;60.70
30304;DHT22;17112;48.636;10.152;2024-03-23T01:12:53;9.30;60.70
30304;DHT22;17112;48.636;10.152;2024-03-23T01:15:18;9.30;60.70
30304;DHT22;17112;48.636;10.152;2024-03-23T01:17:44;9.20;60.60
30304;DHT22;17112;48.636;10.152;2024-03-23T01:20:10;9.20;60.70
30304;DHT22;17112;48.636;10.152;2024-03-23T01:22:35;9.20;60.90
30304;DHT22;17112;48.636;10.152;2024-03-23T01:25:01;9.20;60.80
30304;DHT22;17112;48.636;10.152;2024-03-23T01:27:27;9.10;60.80
30304;DHT22;17112;48.636;10.152;2024-03-23T01:29:52;9.10;60.80
30304;DHT22;17112;48.636;10.152;2024-03-23T01:32:18;9.10;60.90
30304;DHT22;17112;48.636;10.152;2024-03-23T01:34:44;9.10;61.10
30304;DHT22;17112;48.636;10.152;2024-03-23T01:37:10;9.10;61.20
30304;DHT22;17112;48.636;10.152;2024-03-23T01:39:36;9.10;61.20
30304;DHT22;17112;48.636;10.152;2024-03-23T01:42:02;9.00;61.30
30304;DHT22;17112;48.636;10.152;2024-03-23T01:44:28;9.00;61.30
30304;DHT22;17112;48.636;10.152;2024-03-23T01:46:53;9.00;61.50
30304;DHT22;17112;48.636;10.152;2024-03-23T01:49:19;9.00;61.60
30304;DHT22;17112;48.636;10.152;2024-03-23T01:51:45;9.00;61.80
30304;DHT22;17112;48.636;10.152;2024-03-23T01:54:11;9.00;61.80
30304;DHT22;17112;48.636;10.152;2024-03-23T01:56:38;8.90;61.70
30304;DHT22;17112;48.636;10.152;2024-03-23T01:59:06;8.90;61.90
30304;DHT22;17112;48.636;10.152;2024-03-23T02:01:33;8.90;62.00
30304;DHT22;17112;48.636;10.152;2024-03-23T02:04:01;8.90;61.80
30304;DHT22;17112;48.636;10.152;2024-03-23T02:06:27;8.90;61.80
30304;DHT22;17112;48.636;10.152;2024-03-23T02:08:54;8.90;61.80
30304;DHT22;17112;48.636;10.152;2024-03-23T02:11:20;8.90;61.90
30304;DHT22;17112;48.636;10.152;2024-03-23T02:13:45;8.90;62.00
30304;DHT22;17112;48.636;10.152;2024-03-23T02:16:11;8.90;61.90
30304;DHT22;17112;48.636;10.152;2024-03-23T02:18:38;8.90;61.90
30304;DHT22;17112;48.636;10.152;2024-03-23T02:21:04;8.90;62.10
30304;DHT22;17112;48.636;10.152;2024-03-23T02:23:30;8.90;62.20
30304;DHT22;17112;48.636;10.152;2024-03-23T02:25:55;8.90;62.40
30304;DHT22;17112;48.636;10.152;2024-03-23T02:28:21;8.90;62.60
30304;DHT22;17112;48.636;10.152;2024-03-23T02:30:49;8.90;62.80
30304;DHT22;17112;48.636;10.152;2024-03-23T02:33:15;8.90;62.80
30304;DHT22;17112;48.636;10.152;2024-03-23T02:35:40;8.90;62.90
30304;DHT22;17112;48.636;10.152;2024-03-23T02:38:06;8.90;62.80
30304;DHT22;17112;48.636;10.152;2024-03-23T02:40:32;8.90;62.90
30304;DHT22;17112;48.636;10.152;2024-03-23T02:42:57;8.90;62.90
30304;DHT22;17112;48.636;10.152;2024-03-23T02:45:28;9.00;62.90
30304;DHT22;17112;48.636;10.152;2024-03-23T02:47:54;9.00;63.10
30304;DHT22;17112;48.636;10.152;2024-03-23T02:50:19;9.00;62.70
30304;DHT22;17112;48.636;10.152;2024-03-23T02:52:45;9.00;62.70
30304;DHT22;17112;48.636;10.152;2024-03-23T02:55:11;9.00;62.70
30304;DHT22;17112;48.636;10.152;2024-03-23T02:57:37;9.00;62.70
30304;DHT22;17112;48.636;10.152;2024-03-23T03:00:03;9.00;62.90
30304;DHT22;17112;48.636;10.152;2024-03-23T03:02:30;9.10;63.10
30304;DHT22;17112;48.636;10.152;2024-03-23T03:04:56;9.00;63.20
30304;DHT22;17112;48.636;10.152;2024-03-23T03:07:22;9.00;63.30
30304;DHT22;17112;48.636;10.152;2024-03-23T03:09:47;9.10;63.60
30304;DHT22;17112;48.636;10.152;2024-03-23T03:12:13;9.10;63.50
30304;DHT22;17112;48.636;10.152;2024-03-23T03:14:38;9.10;63.40
30304;DHT22;17112;48.636;10.152;2024-03-23T03:17:04;9.20;63.40
30304;DHT22;17112;48.636;10.152;2024-03-23T03:19:30;9.20;63.40
30304;DHT22;17112;48.636;10.152;2024-03-23T03:21:55;9.20;63.60
30304;DHT22;17112;48.636;10.152;2024-03-23T03:24:21;9.20;63.70
30304;DHT22;17112;48.636;10.152;2024-03-23T03:26:47;9.30;63.80
30304;DHT22;17112;48.636;10.152;2024-03-23T03:29:13;9.30;63.70
30304;DHT22;17112;48.636;10.152;2024-03-23T03:31:39;9.30;63.80
30304;DHT22;17112;48.636;10.152;2024-03-23T03:34:05;9.40;64.00
30304;DHT22;17112;48.636;10.152;2024-03-23T03:36:30;9.40;64.00
30304;DHT22;17112;48.636;10.152;2024-03-23T03:38:56;9.40;64.10
30304;DHT22;17112;48.636;10.152;2024-03-23T03:41:21;9.50;64.20
30304;DHT22;17112;48.636;10.152;2024-03-23T03:43:47;9.50;64.40
30304;DHT22;17112;48.636;10.152;2024-03-23T03:46:13;9.60;64.50
30304;DHT22;17112;48.636;10.152;2024-03-23T03:48:38;9.60;64.50
30304;DHT22;17112;48.636;10.152;2024-03-23T03:51:04;9.70;64.40
30304;DHT22;17112;48.636;10.152;2024-03-23T03:53:31;9.70;64.50
30304;DHT22;17112;48.636;10.152;2024-03-23T03:56:00;9.80;64.50
30304;DHT22;17112;48.636;10.152;2024-03-23T03:58:26;9.90;64.80
30304;DHT22;17112;48.636;10.152;2024-03-23T04:00:51;10.00;64.80
30304;DHT22;17112;48.636;10.152;2024-03-23T04:03:17;10.10;64.70
30304;DHT22;17112;48.636;10.152;2024-03-23T04:05:43;10.20;64.80
30304;DHT22;17112;48.636;10.152;2024-03-23T04:08:15;10.30;64.80
30304;DHT22;17112;48.636;10.152;2024-03-23T04:10:40;10.40;64.50
30304;DHT22;17112;48.636;10.152;2024-03-23T04:13:06;10.50;64.40
30304;DHT22;17112;48.636;10.152;2024-03-23T04:15:32;10.60;64.20
30304;DHT22;17112;48.636;10.152;2024-03-23T04:17:58;10.70;64.10
30304;DHT22;17112;48.636;10.152;2024-03-23T04:20:23;10.80;63.90
30304;DHT22;17112;48.636;10.152;2024-03-23T04:22:49;10.90;63.70
30304;DHT22;17112;48.636;10.152;2024-03-23T04:25:15;11.00;63.70
30304;DHT22;17112;48.636;10.152;2024-03-23T04:27:40;11.10;63.70
30304;DHT22;17112;48.636;10.152;2024-03-23T04:30:10;11.10;63.40
30304;DHT22;17112;48.636;10.152;2024-03-23T04:32:39;11.20;63.30
30304;DHT22;17112;48.636;10.152;2024-03-23T04:35:06;11.30;63.50
30304;DHT22;17112;48.636;10.152;2024-03-23T04:37:32;11.30;63.20
30304;DHT22;17112;48.636;10.152;2024-03-23T04:40:00;11.40;63.00
30304;DHT22;17112;48.636;10.152;2024-03-23T04:42:27;11.40;62.80
30304;DHT22;17112;48.636;10.152;2024-03-23T04:44:53;11.40;62.60
30304;DHT22;17112;48.636;10.152;2024-03-23T04:47:19;11.40;62.50
30304;DHT22;17112;48.636;10.152;2024-03-23T04:49:46;11.50;63.10
30304;DHT22;17112;48.636;10.152;2024-03-23T04:52:12;11.40;62.20
30304;DHT22;17112;48.636;10.152;2024-03-23T04:54:38;11.40;62.10
30304;DHT22;17112;48.636;10.152;2024-03-23T04:57:06;11.40;62.00
30304;DHT22;17112;48.636;10.152;2024-03-23T04:59:32;11.40;62.00
30304;DHT22;17112;48.636;10.152;2024-03-23T05:02:01;11.40;61.90
30304;DHT22;17112;48.636;10.152;2024-03-23T05:04:28;11.40;62.00
30304;DHT22;17112;48.636;10.152;2024-03-23T05:06:54;11.40;61.80
30304;DHT22;17112;48.636;10.152;2024-03-23T05:09:20;11.30;61.70
30304;DHT22;17112;48.636;10.152;2024-03-23T05:11:49;11.30;61.70
30304;DHT22;17112;48.636;10.152;2024-03-23T05:14:14;11.20;61.80
30304;DHT22;17112;48.636;10.152;2024-03-23T05:16:40;11.20;61.80
30304;DHT22;17112;48.636;10.152;2024-03-23T05:19:06;11.20;61.70
30304;DHT22;17112;48.636;10.152;2024-03-23T05:21:32;11.10;61.70
30304;DHT22;17112;48.636;10.152;2024-03-23T05:23:58;11.10;61.70
30304;DHT22;17112;48.636;10.152;2024-03-23T05:26:24;11.00;61.80
30304;DHT22;17112;48.636;10.152;2024-03-23T05:28:49;11.00;61.70
30304;DHT22;17112;48.636;10.152;2024-03-23T05:31:28;10.90;61.80
30304;DHT22;17112;48.636;10.152;2024-03-23T05:33:55;10.90;62.40
30304;DHT22;17112;48.636;10.152;2024-03-23T05:36:21;10.80;62.60
30304;DHT22;17112;48.636;10.152;2024-03-23T05:38:47;10.80;62.00
30304;DHT22;17112;48.636;10.152;2024-03-23T05:41:15;10.80;62.20
30304;DHT22;17112;48.636;10.152;2024-03-23T05:43:41;10.70;62.20
30304;DHT22;17112;48.636;10.152;2024-03-23T05:46:07;10.70;63.00
30304;DHT22;17112;48.636;10.152;2024-03-23T05:48:34;10.70;62.60
30304;DHT22;17112;48.636;10.152;2024-03-23T05:51:00;10.70;62.80
30304;DHT22;17112;48.636;10.152;2024-03-23T05:53:26;10.70;63.00
30304;DHT22;17112;48.636;10.152;2024-03-23T05:56:01;10.70;63.20
30304;DHT22;17112;48.636;10.152;2024-03-23T05:58:29;10.80;63.70
30304;DHT22;17112;48.636;10.152;2024-03-23T06:01:00;10.80;63.50
30304;DHT22;17112;48.636;10.152;2024-03-23T06:03:27;10.90;64.00
30304;DHT22;17112;48.636;10.152;2024-03-23T06:05:53;11.00;64.00
30304;DHT22;17112;48.636;10.152;2024-03-23T06:08:19;11.10;64.20
30304;DHT22;17112;48.636;10.152;2024-03-23T06:10:45;11.20;64.50
30304;DHT22;17112;48.636;10.152;2024-03-23T06:13:11;11.30;64.20
30304;DHT22;17112;48.636;10.152;2024-03-23T06:15:43;11.50;63.70
30304;DHT22;17112;48.636;10.152;2024-03-23T06:18:10;11.60;64.00
30304;DHT22;17112;48.636;10.152;2024-03-23T06:20:37;11.70;63.50
30304;DHT22;17112;48.636;10.152;2024-03-23T06:23:03;11.80;63.50
30304;DHT22;17112;48.636;10.152;2024-03-23T06:25:29;11.90;63.90
30304;DHT22;17112;48.636;10.152;2024-03-23T06:27:55;12.00;64.40
30304;DHT22;17112;48.636;10.152;2024-03-23T06:30:21;12.10;64.70
30304;DHT22;17112;48.636;10.152;2024-03-23T06:32:47;12.20;65.70
30304;DHT22;17112;48.636;10.152;2024-03-23T06:35:15;12.20;65.60
30304;DHT22;17112;48.636;10.152;2024-03-23T06:37:42;12.20;65.60
30304;DHT22;17112;48.636;10.152;2024-03-23T06:40:08;12.20;65.20
30304;DHT22;17112;48.636;10.152;2024-03-23T06:42:36;12.20;65.80
30304;DHT22;17112;48.636;10.152;2024-03-23T06:45:12;12.20;65.20
30304;DHT22;17112;48.636;10.152;2024-03-23T06:47:43;12.10;64.90
30304;DHT22;17112;48.636;10.152;2024-03-23T06:50:09;12.10;64.70
30304;DHT22;17112;48.636;10.152;2024-03-23T06:52:35;12.00;64.50
30304;DHT22;17112;48.636;10.152;2024-03-23T06:55:01;11.90;64.50
30304;DHT22;17112;48.636;10.152;2024-03-23T06:57:29;11.90;64.70
30304;DHT22;17112;48.636;10.152;2024-03-23T06:59:57;11.80;65.20
30304;DHT22;17112;48.636;10.152;2024-03-23T07:02:22;11.80;65.60
30304;DHT22;17112;48.636;10.152;2024-03-23T07:04:48;11.70;65.50
30304;DHT22;17112;48.636;10.152;2024-03-23T07:07:14;11.70;65.30
30304;DHT22;17112;48.636;10.152;2024-03-23T07:09:40;11.60;65.20
30304;DHT22;17112;48.636;10.152;2024-03-23T07:12:06;11.50;65.10
30304;DHT22;17112;48.636;10.152;2024-03-23T07:14:31;11.50;65.10
30304;DHT22;17112;48.636;10.152;2024-03-23T07:16:57;11.50;65.40
30304;DHT22;17112;48.636;10.152;2024-03-23T07:19:23;11.40;65.90
30304;DHT22;17112;48.636;10.152;2024-03-23T07:21:50;11.40;65.90
30304;DHT22;17112;48.636;10.152;2024-03-23T07:24:16;11.40;65.70
30304;DHT22;17112;48.636;10.152;2024-03-23T07:26:41;11.30;65.90
30304;DHT22;17112;48.636;10.152;2024-03-23T07:29:07;11.40;65.80
30304;DHT22;17112;48.636;10.152;2024-03-23T07:31:33;11.40;66.00
30304;DHT22;17112;48.636;10.152;2024-03-23T07:34:02;11.40;65.70
30304;DHT22;17112;48.636;10.152;2024-03-23T07:36:27;11.40;65.40
30304;DHT22;17112;48.636;10.152;2024-03-23T07:38:53;11.40;65.90
30304;DHT22;17112;48.636;10.152;2024-03-23T07:41:20;11.40;66.40
30304;DHT22;17112;48.636;10.152;2024-03-23T07:43:47;11.40;66.00
30304;DHT22;17112;48.636;10.152;2024-03-23T07:46:14;11.40;65.80
30304;DHT22;17112;48.636;10.152;2024-03-23T07:48:40;11.40;66.20
30304;DHT22;17112;48.636;10.152;2024-03-23T07:51:20;11.40;66.00
30304;DHT22;17112;48.636;10.152;2024-03-23T07:53:46;11.40;66.40
30304;DHT22;17112;48.636;10.152;2024-03-23T07:56:13;11.50;65.80
30304;DHT22;17112;48.636;10.152;2024-03-23T07:58:40;11.50;66.90
30304;DHT22;17112;48.636;10.152;2024-03-23T08:01:14;11.50;66.00
30304;DHT22;17112;48.636;10.152;2024-03-23T08:03:41;11.60;65.90
30304;DHT22;17112;48.636;10.152;2024-03-23T08:06:08;11.60;65.60
30304;DHT22;17112;48.636;10.152;2024-03-23T08:08:37;11.60;65.50
30304;DHT22;17112;48.636;10.152;2024-03-23T08:11:03;11.60;65.10
30304;DHT22;17112;48.636;10.152;2024-03-23T08:13:29;11.70;64.90
30304;DHT22;17112;48.636;10.152;2024-03-23T08:15:59;11.70;64.60
30304;DHT22;17112;48.636;10.152;2024-03-23T08:18:25;11.70;64.70
30304;DHT22;17112;48.636;10.152;2024-03-23T08:21:05;11.70;64.70
30304;DHT22;17112;48.636;10.152;2024-03-23T08:23:32;11.70;64.10
30304;DHT22;17112;48.636;10.152;2024-03-23T08:26:12;11.80;63.90
30304;DHT22;17112;48.636;10.152;2024-03-23T08:28:38;11.80;63.80
30304;DHT22;17112;48.636;10.152;2024-03-23T08:31:09;11.80;63.60
30304;DHT22;17112;48.636;10.152;2024-03-23T08:33:35;11.90;63.30
30304;DHT22;17112;48.636;10.152;2024-03-23T08:36:08;11.90;63.00
30304;DHT22;17112;48.636;10.152;2024-03-23T08:38:34;11.90;62.70
30304;DHT22;17112;48.636;10.152;2024-03-23T08:41:07;11.80;62.40
30304;DHT22;17112;48.636;10.152;2024-03-23T08:43:40;11.80;62.50
30304;DHT22;17112;48.636;10.152;2024-03-23T08:46:11;11.80;62.90
30304;DHT22;17112;48.636;10.152;2024-03-23T08:48:39;11.80;63.10
30304;DHT22;17112;48.636;10.152;2024-03-23T08:51:09;11.80;63.10
30304;DHT22;17112;48.636;10.152;2024-03-23T08:53:38;11.90;62.90
30304;DHT22;17112;48.636;10.152;2024-03-23T08:56:05;11.90;62.50
30304;DHT22;17112;48.636;10.152;2024-03-23T08:58:35;11.90;62.40
30304;DHT22;17112;48.636;10.152;2024-03-23T09:01:12;11.80;62.70
30304;DHT22;17112;48.636;10.152;2024-03-23T09:03:41;11.90;63.20
30304;DHT22;17112;48.636;10.152;2024-03-23T09:06:11;12.00;63.00
30304;DHT22;17112;48.636;10.152;2024-03-23T09:08:36;12.10;62.70
30304;DHT22;17112;48.636;10.152;2024-03-23T09:11:06;12.10;62.60
30304;DHT22;17112;48.636;10.152;2024-03-23T09:13:36;12.10;62.70
30304;DHT22;17112;48.636;10.152;2024-03-23T09:16:02;12.20;62.80
30304;DHT22;17112;48.636;10.152;2024-03-23T09:18:35;12.20;61.70
30304;DHT22;17112;48.636;10.152;2024-03-23T09:21:01;12.30;61.50
30304;DHT22;17112;48.636;10.152;2024-03-23T09:23:27;12.30;61.50
30304;DHT22;17112;48.636;10.152;2024-03-23T09:25:53;12.30;61.10
30304;DHT22;17112;48.636;10.152;2024-03-23T09:28:18;12.30;60.50
30304;DHT22;17112;48.636;10.152;2024-03-23T09:30:44;12.40;60.40
30304;DHT22;17112;48.636;10.152;2024-03-23T09:33:11;12.30;60.00
30304;DHT22;17112;48.636;10.152;2024-03-23T09:35:42;12.30;59.80
30304;DHT22;17112;48.636;10.152;2024-03-23T09:38:08;12.30;59.80
30304;DHT22;17112;48.636;10.152;2024-03-23T09:40:44;12.40;59.80
30304;DHT22;17112;48.636;10.152;2024-03-23T09:43:10;12.40;59.10
30304;DHT22;17112;48.636;10.152;2024-03-23T09:45:39;12.50;59.00
30304;DHT22;17112;48.636;10.152;2024-03-23T09:48:10;12.50;59.20
30304;DHT22;17112;48.636;10.152;2024-03-23T09:50:39;12.50;58.20
30304;DHT22;17112;48.636;10.152;2024-03-23T09:53:12;12.50;58.60
30304;DHT22;17112;48.636;10.152;2024-03-23T09:55:39;12.40;57.90
30304;DHT22;17112;48.636;10.152;2024-03-23T09:58:05;12.40;58.30
30304;DHT22;17112;48.636;10.152;2024-03-23T10:00:32;12.40;58.50
30304;DHT22;17112;48.636;10.152;2024-03-23T10:02:58;12.40;57.60
30304;DHT22;17112;48.636;10.152;2024-03-23T10:05:28;12.40;58.10
30304;DHT22;17112;48.636;10.152;2024-03-23T10:07:54;12.40;57.30
30304;DHT22;17112;48.636;10.152;2024-03-23T10:10:20;12.40;56.90
30304;DHT22;17112;48.636;10.152;2024-03-23T10:12:48;12.30;55.90
30304;DHT22;17112;48.636;10.152;2024-03-23T10:15:25;12.30;55.90
30304;DHT22;17112;48.636;10.152;2024-03-23T10:17:51;12.20;55.70
30304;DHT22;17112;48.636;10.152;2024-03-23T10:20:22;12.20;55.90
30304;DHT22;17112;48.636;10.152;2024-03-23T10:22:51;12.20;56.30
30304;DHT22;17112;48.636;10.152;2024-03-23T10:25:17;12.20;56.80
30304;DHT22;17112;48.636;10.152;2024-03-23T10:27:58;12.30;56.90
30304;DHT22;17112;48.636;10.152;2024-03-23T10:30:25;12.40;56.80
30304;DHT22;17112;48.636;10.152;2024-03-23T10:33:09;12.70;57.10
30304;DHT22;17112;48.636;10.152;2024-03-23T10:35:37;12.70;56.50
30304;DHT22;17112;48.636;10.152;2024-03-23T10:38:05;12.80;56.90
30304;DHT22;17112;48.636;10.152;2024-03-23T10:40:36;12.90;55.30
30304;DHT22;17112;48.636;10.152;2024-03-23T10:43:03;12.90;54.20
30304;DHT22;17112;48.636;10.152;2024-03-23T10:45:32;13.00;53.80
30304;DHT22;17112;48.636;10.152;2024-03-23T10:47:59;13.00;54.00
30304;DHT22;17112;48.636;10.152;2024-03-23T10:50:25;13.00;52.70
30304;DHT22;17112;48.636;10.152;2024-03-23T10:52:53;12.90;53.10
30304;DHT22;17112;48.636;10.152;2024-03-23T10:55:20;12.90;53.50
30304;DHT22;17112;48.636;10.152;2024-03-23T10:57:52;12.90;52.90
30304;DHT22;17112;48.636;10.152;2024-03-23T11:00:18;12.90;53.40
30304;DHT22;17112;48.636;10.152;2024-03-23T11:02:47;12.90;52.80
30304;DHT22;17112;48.636;10.152;2024-03-23T11:05:29;12.90;52.10
30304;DHT22;17112;48.636;10.152;2024-03-23T11:07:55;12.80;50.80
30304;DHT22;17112;48.636;10.152;2024-03-23T11:10:29;12.70;50.50
30304;DHT22;17112;48.636;10.152;2024-03-23T11:12:58;12.60;51.20
30304;DHT22;17112;48.636;10.152;2024-03-23T11:15:44;12.60;51.20
30304;DHT22;17112;48.636;10.152;2024-03-23T11:18:09;12.50;52.00
30304;DHT22;17112;48.636;10.152;2024-03-23T11:20:36;12.50;52.20
30304;DHT22;17112;48.636;10.152;2024-03-23T11:23:02;12.40;52.50
30304;DHT22;17112;48.636;10.152;2024-03-23T11:25:28;12.50;52.20
30304;DHT22;17112;48.636;10.152;2024-03-23T11:27:56;12.40;52.30
30304;DHT22;17112;48.636;10.152;2024-03-23T11:30:27;12.50;52.00
30304;DHT22;17112;48.636;10.152;2024-03-23T11:32:56;12.50;51.90
30304;DHT22;17112;48.636;10.152;2024-03-23T11:38:23;12.70;52.50
30304;DHT22;17112;48.636;10.152;2024-03-23T11:40:49;12.80;51.60
30304;DHT22;17112;48.636;10.152;2024-03-23T11:43:19;13.00;53.00
30304;DHT22;17112;48.636;10.152;2024-03-23T11:45:46;13.50;52.70
30304;DHT22;17112;48.636;10.152;2024-03-23T11:48:15;13.40;51.60
30304;DHT22;17112;48.636;10.152;2024-03-23T11:50:44;13.50;50.90
30304;DHT22;17112;48.636;10.152;2024-03-23T11:55:51;13.60;49.20
30304;DHT22;17112;48.636;10.152;2024-03-23T11:58:21;13.70;49.10
30304;DHT22;17112;48.636;10.152;2024-03-23T12:00:57;13.70;49.30
30304;DHT22;17112;48.636;10.152;2024-03-23T12:03:23;13.70;47.90
30304;DHT22;17112;48.636;10.152;2024-03-23T12:05:55;13.70;48.10
30304;DHT22;17112;48.636;10.152;2024-03-23T12:08:25;13.60;49.40
30304;DHT22;17112;48.636;10.152;2024-03-23T12:11:09;13.40;50.30
30304;DHT22;17112;48.636;10.152;2024-03-23T12:13:36;13.10;51.60
30304;DHT22;17112;48.636;10.152;2024-03-23T12:16:17;12.80;51.90
30304;DHT22;17112;48.636;10.152;2024-03-23T12:18:44;12.40;52.90
30304;DHT22;17112;48.636;10.152;2024-03-23T12:21:11;12.10;52.90
30304;DHT22;17112;48.636;10.152;2024-03-23T12:23:39;11.70;53.50
30304;DHT22;17112;48.636;10.152;2024-03-23T12:26:05;11.40;54.70
30304;DHT22;17112;48.636;10.152;2024-03-23T12:28:32;11.10;55.30
30304;DHT22;17112;48.636;10.152;2024-03-23T12:30:58;11.00;56.20
30304;DHT22;17112;48.636;10.152;2024-03-23T12:33:24;10.90;56.90
30304;DHT22;17112;48.636;10.152;2024-03-23T12:35:50;10.80;57.60
30304;DHT22;17112;48.636;10.152;2024-03-23T12:38:16;10.80;58.20
30304;DHT22;17112;48.636;10.152;2024-03-23T12:40:46;10.90;58.40
30304;DHT22;17112;48.636;10.152;2024-03-23T12:43:13;11.00;58.70
30304;DHT22;17112;48.636;10.152;2024-03-23T12:45:39;11.10;58.60
30304;DHT22;17112;48.636;10.152;2024-03-23T12:48:05;11.30;58.70
30304;DHT22;17112;48.636;10.152;2024-03-23T12:50:31;11.40;58.30
30304;DHT22;17112;48.636;10.152;2024-03-23T12:52:57;11.50;57.30
30304;DHT22;17112;48.636;10.152;2024-03-23T12:55:22;11.50;56.80
30304;DHT22;17112;48.636;10.152;2024-03-23T12:57:48;11.50;56.70
30304;DHT22;17112;48.636;10.152;2024-03-23T13:00:14;11.50;56.50
30304;DHT22;17112;48.636;10.152;2024-03-23T13:02:42;11.50;56.50
30304;DHT22;17112;48.636;10.152;2024-03-23T13:05:08;11.50;56.30
30304;DHT22;17112;48.636;10.152;2024-03-23T13:07:34;11.60;55.50
30304;DHT22;17112;48.636;10.152;2024-03-23T13:10:01;11.60;55.10
30304;DHT22;17112;48.636;10.152;2024-03-23T13:12:27;11.70;55.00
30304;DHT22;17112;48.636;10.152;2024-03-23T13:14:53;11.70;54.70
30304;DHT22;17112;48.636;10.152;2024-03-23T13:17:19;11.70;54.00
30304;DHT22;17112;48.636;10.152;2024-03-23T13:19:44;11.80;54.40
30304;DHT22;17112;48.636;10.152;2024-03-23T13:22:10;11.80;54.40
30304;DHT22;17112;48.636;10.152;2024-03-23T13:24:37;11.90;54.30
30304;DHT22;17112;48.636;10.152;2024-03-23T13:27:03;11.90;54.10
30304;DHT22;17112;48.636;10.152;2024-03-23T13:29:30;11.90;53.80
30304;DHT22;17112;48.636;10.152;2024-03-23T13:31:56;11.90;53.50
30304;DHT22;17112;48.636;10.152;2024-03-23T13:34:22;11.80;53.50
30304;DHT22;17112;48.636;10.152;2024-03-23T13:36:48;11.70;53.40
30304;DHT22;17112;48.636;10.152;2024-03-23T13:39:14;11.70;53.60
30304;DHT22;17112;48.636;10.152;2024-03-23T13:41:42;11.70;54.20
30304;DHT22;17112;48.636;10.152;2024-03-23T13:44:10;11.80;54.00
30304;DHT22;17112;48.636;10.152;2024-03-23T13:46:40;11.90;53.40
30304;DHT22;17112;48.636;10.152;2024-03-23T13:49:06;12.10;54.00
30304;DHT22;17112;48.636;10.152;2024-03-23T13:51:32;12.20;53.70
30304;DHT22;17112;48.636;10.152;2024-03-23T13:53:58;12.30;52.30
30304;DHT22;17112;48.636;10.152;2024-03-23T13:56:30;12.40;53.10
30304;DHT22;17112;48.636;10.152;2024-03-23T13:58:56;12.50;52.90
30304;DHT22;17112;48.636;10.152;2024-03-23T14:01:22;12.60;51.90
30304;DHT22;17112;48.636;10.152;2024-03-23T14:03:48;12.70;52.50
30304;DHT22;17112;48.636;10.152;2024-03-23T14:06:14;12.80;52.40
30304;DHT22;17112;48.636;10.152;2024-03-23T14:08:39;12.90;52.10
30304;DHT22;17112;48.636;10.152;2024-03-23T14:11:06;13.00;51.60
30304;DHT22;17112;48.636;10.152;2024-03-23T14:13:32;13.10;51.80
30304;DHT22;17112;48.636;10.152;2024-03-23T14:15:58;13.10;51.60
30304;DHT22;17112;48.636;10.152;2024-03-23T14:18:24;13.20;51.40
30304;DHT22;17112;48.636;10.152;2024-03-23T14:20:52;13.20;50.60
30304;DHT22;17112;48.636;10.152;2024-03-23T14:23:18;13.20;50.70
30304;DHT22;17112;48.636;10.152;2024-03-23T14:25:44;13.20;50.10
30304;DHT22;17112;48.636;10.152;2024-03-23T14:28:10;13.20;50.40
30304;DHT22;17112;48.636;10.152;2024-03-23T14:30:42;13.10;49.60
30304;DHT22;17112;48.636;10.152;2024-03-23T14:33:09;13.10;50.00
30304;DHT22;17112;48.636;10.152;2024-03-23T14:35:34;13.00;50.30
30304;DHT22;17112;48.636;10.152;2024-03-23T14:38:01;13.10;50.60
30304;DHT22;17112;48.636;10.152;2024-03-23T14:40:27;13.20;50.90
30304;DHT22;17112;48.636;10.152;2024-03-23T14:42:56;13.30;50.10
30304;DHT22;17112;48.636;10.152;2024-03-23T14:45:22;13.40;48.80
30304;DHT22;17112;48.636;10.152;2024-03-23T14:47:53;13.50;48.60
30304;DHT22;17112;48.636;10.152;2024-03-23T14:50:18;13.50;48.10
30304;DHT22;17112;48.636;10.152;2024-03-23T14:52:45;13.50;46.80
30304;DHT22;17112;48.636;10.152;2024-03-23T14:55:11;13.50;46.70
30304;DHT22;17112;48.636;10.152;2024-03-23T14:57:37;13.50;46.70
30304;DHT22;17112;48.636;10.152;2024-03-23T15:00:07;13.40;46.50
30304;DHT22;17112;48.636;10.152;2024-03-23T15:02:33;13.40;45.80
30304;DHT22;17112;48.636;10.152;2024-03-23T15:05:00;13.30;45.50
30304;DHT22;17112;48.636;10.152;2024-03-23T15:07:26;13.20;45.80
30304;DHT22;17112;48.636;10.152;2024-03-23T15:09:52;13.20;45.70
30304;DHT22;17112;48.636;10.152;2024-03-23T15:12:19;13.10;46.80
30304;DHT22;17112;48.636;10.152;2024-03-23T15:14:45;13.10;46.50
30304;DHT22;17112;48.636;10.152;2024-03-23T15:17:11;13.10;46.40
30304;DHT22;17112;48.636;10.152;2024-03-23T15:19:37;13.00;46.60
30304;DHT22;17112;48.636;10.152;2024-03-23T15:22:03;12.90;46.90
30304;DHT22;17112;48.636;10.152;2024-03-23T15:24:29;12.80;46.30
30304;DHT22;17112;48.636;10.152;2024-03-23T15:26:54;12.60;46.50
30304;DHT22;17112;48.636;10.152;2024-03-23T15:29:23;12.40;47.20
30304;DHT22;17112;48.636;10.152;2024-03-23T15:31:48;12.10;48.20
30304;DHT22;17112;48.636;10.152;2024-03-23T15:34:24;11.90;49.10
30304;DHT22;17112;48.636;10.152;2024-03-23T15:36:50;11.70;50.00
30304;DHT22;17112;48.636;10.152;2024-03-23T15:39:19;11.60;50.90
30304;DHT22;17112;48.636;10.152;2024-03-23T15:41:48;11.40;51.70
30304;DHT22;17112;48.636;10.152;2024-03-23T15:44:14;11.30;52.50
30304;DHT22;17112;48.636;10.152;2024-03-23T15:46:39;11.40;53.60
30304;DHT22;17112;48.636;10.152;2024-03-23T15:49:06;11.50;54.00
30304;DHT22;17112;48.636;10.152;2024-03-23T15:51:32;11.70;54.10
30304;DHT22;17112;48.636;10.152;2024-03-23T15:54:02;11.90;54.10
30304;DHT22;17112;48.636;10.152;2024-03-23T15:56:31;12.10;53.20
30304;DHT22;17112;48.636;10.152;2024-03-23T15:58:57;12.20;52.30
30304;DHT22;17112;48.636;10.152;2024-03-23T16:01:30;12.20;52.00
30304;DHT22;17112;48.636;10.152;2024-03-23T16:03:59;12.10;51.80
30304;DHT22;17112;48.636;10.152;2024-03-23T16:06:24;11.90;52.30
30304;DHT22;17112;48.636;10.152;2024-03-23T16:08:50;11.70;52.00
30304;DHT22;17112;48.636;10.152;2024-03-23T16:11:16;11.50;52.40
30304;DHT22;17112;48.636;10.152;2024-03-23T16:13:41;11.40;52.70
30304;DHT22;17112;48.636;10.152;2024-03-23T16:16:08;11.20;52.80
30304;DHT22;17112;48.636;10.152;2024-03-23T16:18:36;11.00;53.00
30304;DHT22;17112;48.636;10.152;2024-03-23T16:21:04;10.80;53.20